Time;durP1;ratioP1;P1;durP2;ratioP2;P2;SDS_P1;SDS_P2;PMS_P1;PMS_P2;Temp;Humidity;BMP_temperature;BMP_pressure;BME280_temperature;BME280_humidity;BME280_pressure;Samples;Min_cycle;Max_cycle;Signal;HPM_P1;HPM_P2
2023/04/19 00:00:09;;;;;;;306.70;113.17;;;;;;;11.58;100.00;99148.28;325625;30;1255;-76
2023/04/19 00:00:20;;;;;;;297.63;107.05;;;;;;;11.58;100.00;99158.75;324409;30;1465;-76
2023/04/19 00:00:30;;;;;;;296.05;107.80;;;;;;;11.57;100.00;99157.06;323405;30;1882;-76
2023/04/19 00:00:41;;;;;;;298.85;109.25;;;;;;;11.57;100.00;99148.34;326917;30;1319;-76
2023/04/19 00:00:51;;;;;;;304.90;111.57;;;;;;;11.58;100.00;99152.66;325752;30;903;-76
2023/04/19 00:01:02;;;;;;;305.00;112.03;;;;;;;11.60;100.00;99149.03;326329;30;1865;-76
2023/04/19 00:01:12;;;;;;;302.50;111.80;;;;;;;11.57;100.00;99143.97;325007;30;2488;-76
2023/04/19 00:01:23;;;;;;;297.13;110.57;;;;;;;11.60;100.00;99156.91;323392;30;893;-76
2023/04/19 00:01:34;;;;;;;297.92;111.65;;;;;;;11.60;100.00;99159.53;319656;30;921;-75
2023/04/19 00:01:44;;;;;;;297.77;112.35;;;;;;;11.59;100.00;99154.34;317820;30;3015;-76
2023/04/19 00:01:55;;;;;;;299.40;113.73;;;;;;;11.58;100.00;99148.28;317602;30;3092;-76
2023/04/19 00:02:07;;;;;;;298.33;112.05;;;;;;;11.58;100.00;99153.50;317506;31;1459;-77
2023/04/19 00:02:18;;;;;;;300.10;112.07;;;;;;;11.57;100.00;99149.19;317084;30;3208;-76
2023/04/19 00:02:28;;;;;;;297.73;109.85;;;;;;;11.57;100.00;99143.97;315769;30;3029;-75
2023/04/19 00:02:40;;;;;;;297.03;109.03;;;;;;;11.57;100.00;99149.19;315389;30;2497;-75
2023/04/19 00:02:51;;;;;;;301.52;110.82;;;;;;;11.60;100.00;99146.41;317829;31;1888;-76
2023/04/19 00:03:01;;;;;;;301.40;111.25;;;;;;;11.60;100.00;99149.03;314770;31;2222;-76
2023/04/19 00:03:13;;;;;;;301.67;112.30;;;;;;;11.59;100.00;99144.72;319154;30;2693;-77
2023/04/19 00:03:24;;;;;;;296.40;110.07;;;;;;;11.61;100.00;99158.59;319975;30;3355;-76
2023/04/19 00:03:35;;;;;;;299.83;113.05;;;;;;;11.60;100.00;99151.66;318627;31;837;-76
2023/04/19 00:03:45;;;;;;;300.33;113.47;;;;;;;11.62;100.00;99152.44;317581;30;4604;-76
2023/04/19 00:03:56;;;;;;;300.67;114.20;;;;;;;11.62;100.00;99152.44;317719;30;4627;-75
2023/04/19 00:04:07;;;;;;;301.05;113.53;;;;;;;11.63;100.00;99148.88;320772;30;1230;-76
2023/04/19 00:04:19;;;;;;;301.20;113.30;;;;;;;11.62;100.00;99152.44;319847;30;4146;-76
2023/04/19 00:04:29;;;;;;;298.25;111.13;;;;;;;11.62;100.00;99147.19;318351;30;4462;-76
2023/04/19 00:04:40;;;;;;;298.52;110.47;;;;;;;11.63;100.00;99148.88;315187;31;4271;-76
2023/04/19 00:04:51;;;;;;;298.40;111.28;;;;;;;11.65;100.00;99148.78;314163;31;871;-76
2023/04/19 00:05:02;;;;;;;298.73;112.20;;;;;;;11.60;100.00;99143.78;312136;31;3459;-76
2023/04/19 00:05:13;;;;;;;297.05;111.72;;;;;;;11.62;100.00;99152.44;311169;31;3364;-76
2023/04/19 00:05:23;;;;;;;298.23;110.80;;;;;;;11.63;100.00;99148.88;312151;31;3647;-76
2023/04/19 00:05:33;;;;;;;298.33;111.25;;;;;;;11.61;100.00;99142.88;311719;31;925;-76
2023/04/19 00:05:44;;;;;;;299.03;112.50;;;;;;;11.64;100.00;99150.56;308232;31;5280;-76
2023/04/19 00:05:57;;;;;;;298.73;113.70;;;;;;;11.63;100.00;99156.75;306266;31;6536;-75
2023/04/19 00:06:09;;;;;;;298.83;113.78;;;;;;;11.62;100.00;99146.34;309633;31;950;-76
2023/04/19 00:06:20;;;;;;;298.42;113.03;;;;;;;11.64;100.00;99145.34;299997;32;1466;-76
2023/04/19 00:06:30;;;;;;;296.92;112.93;;;;;;;11.61;100.00;99150.72;300057;32;5604;-76
2023/04/19 00:06:41;;;;;;;297.70;112.72;;;;;;;11.62;100.00;99147.19;296779;33;6344;-76
2023/04/19 00:06:51;;;;;;;297.48;112.05;;;;;;;11.62;100.00;99149.81;297868;33;1228;-76
2023/04/19 00:07:02;;;;;;;297.77;111.53;;;;;;;11.64;100.00;99147.09;300439;32;6039;-75
2023/04/19 00:07:12;;;;;;;295.77;110.70;;;;;;;11.64;100.00;99150.56;295500;33;5203;-76
2023/04/19 00:07:23;;;;;;;297.57;110.80;;;;;;;11.66;100.00;99150.50;293122;33;859;-76
2023/04/19 00:07:33;;;;;;;296.25;110.80;;;;;;;11.64;100.00;99145.34;292207;33;1297;-76
2023/04/19 00:07:43;;;;;;;298.37;112.77;;;;;;;11.64;100.00;99147.09;291585;33;7134;-76
2023/04/19 00:07:54;;;;;;;299.67;114.22;;;;;;;11.60;100.00;99143.78;290430;33;7941;-76
2023/04/19 00:08:05;;;;;;;302.50;116.13;;;;;;;11.58;100.00;99150.88;290986;34;1231;-76
2023/04/19 00:08:15;;;;;;;300.92;113.35;;;;;;;11.58;100.00;99139.56;285237;34;6343;-77
2023/04/19 00:10:00;;;;;;;286.20;100.98;;;;;;;11.61;100.00;99152.50;2502867;27;20259;-75
2023/04/19 00:10:11;;;;;;;293.10;106.80;;;;;;;11.59;100.00;99149.13;353310;28;863;-77
2023/04/19 00:10:21;;;;;;;298.42;109.22;;;;;;;11.59;100.00;99136.84;348890;28;1207;-76
2023/04/19 00:10:32;;;;;;;298.63;109.90;;;;;;;11.58;100.00;99147.44;347581;28;1222;-76
2023/04/19 00:10:42;;;;;;;300.00;109.88;;;;;;;11.60;100.00;99142.94;348939;28;1328;-76
2023/04/19 00:10:53;;;;;;;296.33;109.30;;;;;;;11.59;100.00;99143.88;347488;28;1437;-76
2023/04/19 00:11:03;;;;;;;296.73;109.70;;;;;;;11.59;100.00;99143.88;348929;28;1224;-76
2023/04/19 00:11:13;;;;;;;300.30;112.27;;;;;;;11.59;100.00;99147.34;348839;28;1283;-76
2023/04/19 00:11:24;;;;;;;301.25;111.93;;;;;;;11.57;100.00;99143.97;348976;28;1266;-76
2023/04/19 00:11:34;;;;;;;299.90;111.57;;;;;;;11.58;100.00;99143.03;350450;28;877;-76
2023/04/19 00:11:45;;;;;;;294.63;108.97;;;;;;;11.59;100.00;99138.63;351723;28;1276;-76
2023/04/19 00:11:55;;;;;;;295.70;110.28;;;;;;;11.60;100.00;99141.19;351476;28;1603;-76
2023/04/19 00:12:05;;;;;;;300.20;110.73;;;;;;;11.61;100.00;99139.41;350414;28;1044;-77
2023/04/19 00:12:16;;;;;;;305.23;112.88;;;;;;;11.61;100.00;99137.63;348968;28;877;-77
2023/04/19 00:12:26;;;;;;;305.13;112.90;;;;;;;11.57;100.00;99138.72;351839;28;859;-77
2023/04/19 00:12:37;;;;;;;301.45;112.50;;;;;;;11.55;100.00;99135.31;353289;28;1226;-76
2023/04/19 00:12:47;;;;;;;296.30;110.23;;;;;;;11.55;100.00;99131.84;351953;28;1304;-76
2023/04/19 00:12:58;;;;;;;295.95;110.03;;;;;;;11.57;100.00;99133.47;351737;28;855;-77
2023/04/19 00:13:08;;;;;;;296.20;111.50;;;;;;;11.57;100.00;99138.72;351570;28;1190;-76
2023/04/19 00:13:19;;;;;;;298.77;112.90;;;;;;;11.56;100.00;99131.78;350299;28;919;-76
2023/04/19 00:13:29;;;;;;;300.77;111.60;;;;;;;11.58;100.00;99140.41;347573;28;1288;-76
2023/04/19 00:13:40;;;;;;;301.10;111.03;;;;;;;11.57;100.00;99133.47;350351;28;904;-75
2023/04/19 00:13:50;;;;;;;296.57;109.07;;;;;;;11.59;100.00;99136.84;350047;28;1214;-76
2023/04/19 00:14:01;;;;;;;296.10;109.65;;;;;;;11.61;100.00;99140.25;347341;28;1214;-76
2023/04/19 00:14:11;;;;;;;296.47;110.03;;;;;;;11.61;100.00;99139.41;346973;28;1211;-76
2023/04/19 00:14:21;;;;;;;301.52;112.57;;;;;;;11.57;100.00;99133.47;347550;28;1038;-76
2023/04/19 00:14:32;;;;;;;302.23;112.97;;;;;;;11.56;100.00;99131.78;346143;28;1202;-76
2023/04/19 00:14:42;;;;;;;301.50;112.23;;;;;;;11.56;100.00;99139.66;344828;28;1234;-76
2023/04/19 00:14:52;;;;;;;296.13;109.33;;;;;;;11.56;100.00;99134.41;343488;28;1379;-75
2023/04/19 00:15:04;;;;;;;296.73;109.80;;;;;;;11.58;100.00;99132.53;343488;28;942;-76
2023/04/19 00:15:14;;;;;;;296.88;109.80;;;;;;;11.58;100.00;99135.16;343485;28;1059;-76
2023/04/19 00:15:24;;;;;;;298.93;110.30;;;;;;;11.57;100.00;99136.09;343634;28;1114;-76
2023/04/19 00:15:36;;;;;;;299.20;111.00;;;;;;;11.58;100.00;99127.31;343449;28;1216;-76
2023/04/19 00:15:46;;;;;;;297.00;109.53;;;;;;;11.56;100.00;99128.31;343480;28;1446;-76
2023/04/19 00:15:57;;;;;;;296.33;109.93;;;;;;;11.54;100.00;99131.00;344696;28;1114;-76
2023/04/19 00:16:08;;;;;;;297.63;111.03;;;;;;;11.56;100.00;99131.78;344642;28;994;-76
2023/04/19 00:16:18;;;;;;;297.67;111.77;;;;;;;11.56;100.00;99136.16;346131;28;825;-76
2023/04/19 00:16:29;;;;;;;297.03;111.53;;;;;;;11.56;100.00;99131.78;342053;28;1356;-76
2023/04/19 00:16:39;;;;;;;295.38;109.65;;;;;;;11.55;100.00;99129.25;341897;28;1240;-76
2023/04/19 00:16:50;;;;;;;294.67;108.95;;;;;;;11.58;100.00;99129.94;342074;28;1035;-76
2023/04/19 00:17:00;;;;;;;296.07;109.40;;;;;;;11.59;100.00;99131.63;342009;28;1225;-75
2023/04/19 00:17:11;;;;;;;299.15;109.75;;;;;;;11.59;100.00;99130.78;342049;28;1250;-75
2023/04/19 00:17:23;;;;;;;299.97;111.33;;;;;;;11.60;100.00;99132.47;340698;29;1146;-76
2023/04/19 00:17:34;;;;;;;297.27;110.65;;;;;;;11.60;100.00;99132.47;339439;29;1385;-76
2023/04/19 00:17:44;;;;;;;294.40;110.73;;;;;;;11.60;100.00;99127.22;336601;29;1193;-76
2023/04/19 00:17:55;;;;;;;293.55;108.72;;;;;;;11.60;100.00;99128.06;340302;28;1349;-75
2023/04/19 00:18:06;;;;;;;293.70;108.45;;;;;;;11.58;100.00;99131.69;342010;28;1410;-76
2023/04/19 00:18:16;;;;;;;294.90;108.90;;;;;;;11.59;100.00;99129.00;336704;29;1482;-76
2023/04/19 00:18:26;;;;;;;296.17;111.38;;;;;;;11.56;100.00;99126.53;336584;29;1308;-76
2023/04/19 00:18:37;;;;;;;298.33;112.60;;;;;;;11.57;100.00;99128.22;337496;29;1655;-76
2023/04/19 00:18:48;;;;;;;297.48;112.63;;;;;;;11.59;100.00;99130.78;338025;29;1157;-75
2023/04/19 00:18:58;;;;;;;298.63;111.67;;;;;;;11.58;100.00;99129.94;335416;29;1915;-76
2023/04/19 00:19:09;;;;;;;296.98;110.60;;;;;;;11.58;100.00;99129.94;339335;29;1530;-76
2023/04/19 00:19:20;;;;;;;298.60;112.10;;;;;;;11.57;100.00;99128.22;339302;29;1246;-76
2023/04/19 00:19:31;;;;;;;297.38;111.68;;;;;;;11.57;100.00;99128.22;339576;29;854;-76
2023/04/19 00:19:41;;;;;;;296.52;109.97;;;;;;;11.54;100.00;99125.78;338820;29;1881;-76
2023/04/19 00:19:52;;;;;;;296.47;109.63;;;;;;;11.54;100.00;99128.38;336292;29;1428;-76
2023/04/19 00:20:04;;;;;;;296.40;109.57;;;;;;;11.54;100.00;99123.16;332959;29;1215;-77
2023/04/19 00:20:14;;;;;;;295.98;110.00;;;;;;;11.55;100.00;99124.84;333820;29;1835;-76
2023/04/19 00:20:25;;;;;;;296.17;110.83;;;;;;;11.54;100.00;99130.16;330101;29;1831;-76
2023/04/19 00:20:35;;;;;;;297.02;111.75;;;;;;;11.56;100.00;99128.31;331837;29;1921;-76
2023/04/19 00:20:47;;;;;;;295.97;110.90;;;;;;;11.57;100.00;99123.00;334289;29;810;-76
2023/04/19 00:20:57;;;;;;;295.33;109.50;;;;;;;11.56;100.00;99121.28;333947;29;2610;-76
2023/04/19 00:21:08;;;;;;;295.88;109.78;;;;;;;11.56;100.00;99126.53;333186;29;1613;-77
2023/04/19 00:21:18;;;;;;;297.70;110.77;;;;;;;11.57;100.00;99123.00;331740;29;918;-76
2023/04/19 00:21:30;;;;;;;297.45;111.03;;;;;;;11.55;100.00;99119.59;326706;30;1370;-76
2023/04/19 00:21:40;;;;;;;296.60;110.88;;;;;;;11.57;100.00;99123.00;328030;30;1344;-76
2023/04/19 00:21:51;;;;;;;295.90;110.50;;;;;;;11.57;100.00;99123.00;330476;29;1822;-76
2023/04/19 00:22:01;;;;;;;297.77;111.53;;;;;;;11.57;100.00;99122.13;329244;29;1325;-76
2023/04/19 00:22:12;;;;;;;298.77;112.03;;;;;;;11.57;100.00;99124.75;331593;29;2868;-76
2023/04/19 00:22:22;;;;;;;299.77;112.57;;;;;;;11.53;100.00;99118.84;331195;29;2199;-76
2023/04/19 00:22:33;;;;;;;297.98;111.00;;;;;;;11.53;100.00;99116.22;326857;30;1255;-76
2023/04/19 00:22:43;;;;;;;296.88;111.18;;;;;;;11.52;100.00;99129.41;327326;30;2237;-76
2023/04/19 00:22:54;;;;;;;295.60;111.00;;;;;;;11.53;100.00;99126.69;326424;29;2588;-75
2023/04/19 00:23:04;;;;;;;296.13;110.90;;;;;;;11.52;100.00;99125.00;325804;30;1302;-76
2023/04/19 00:23:14;;;;;;;297.38;110.10;;;;;;;11.52;100.00;99116.28;327633;30;2473;-76
2023/04/19 00:23:25;;;;;;;299.20;109.87;;;;;;;11.52;100.00;99122.38;328712;29;1832;-77
2023/04/19 00:23:35;;;;;;;301.20;111.97;;;;;;;11.53;100.00;99120.59;332926;29;1391;-76
2023/04/19 00:23:46;;;;;;;302.80;114.33;;;;;;;11.55;100.00;99121.38;329449;30;804;-76
2023/04/19 00:23:56;;;;;;;301.55;114.35;;;;;;;11.54;100.00;99123.16;329001;30;1984;-75
2023/04/19 00:24:07;;;;;;;298.03;112.00;;;;;;;11.54;100.00;99117.91;326786;29;2541;-76
2023/04/19 00:24:17;;;;;;;298.80;111.90;;;;;;;11.54;100.00;99123.16;326677;30;1245;-75
2023/04/19 00:24:29;;;;;;;299.03;112.00;;;;;;;11.55;100.00;99114.34;328989;29;3184;-76
2023/04/19 00:24:39;;;;;;;302.60;112.45;;;;;;;11.57;100.00;99119.53;327361;29;3060;-76
2023/04/19 00:24:50;;;;;;;302.90;111.97;;;;;;;11.57;100.00;99124.75;322766;30;3155;-76
2023/04/19 00:25:00;;;;;;;304.40;112.07;;;;;;;11.56;100.00;99118.69;323363;30;889;-75
2023/04/19 00:25:11;;;;;;;298.85;109.43;;;;;;;11.56;100.00;99121.28;319997;30;3324;-75
2023/04/19 00:25:21;;;;;;;301.00;109.17;;;;;;;11.59;100.00;99120.28;319469;30;3290;-75
2023/04/19 00:25:33;;;;;;;303.33;110.20;;;;;;;11.58;100.00;99118.59;319824;30;879;-75
2023/04/19 00:25:47;;;;;;;305.50;111.35;;;;;;;11.58;100.00;99123.84;321333;30;2576;-75
2023/04/19 00:25:58;;;;;;;303.05;111.85;;;;;;;11.57;100.00;99116.91;321514;30;1847;-75
2023/04/19 00:26:10;;;;;;;299.97;111.10;;;;;;;11.57;100.00;99123.00;318920;30;2546;-75
2023/04/19 00:26:21;;;;;;;300.88;112.75;;;;;;;11.57;100.00;99116.91;316784;30;3355;-75
2023/04/19 00:26:31;;;;;;;303.13;112.65;;;;;;;11.57;100.00;99120.38;320773;30;1353;-75
2023/04/19 00:26:41;;;;;;;304.63;112.95;;;;;;;11.56;100.00;99121.28;317343;30;4449;-75
2023/04/19 00:26:52;;;;;;;303.90;112.87;;;;;;;11.55;100.00;99116.97;316137;30;4585;-76
2023/04/19 00:27:02;;;;;;;299.50;111.57;;;;;;;11.57;100.00;99117.75;316361;31;1323;-75
2023/04/19 00:27:13;;;;;;;300.70;113.33;;;;;;;11.58;100.00;99118.59;310976;31;4346;-75
2023/04/19 00:27:23;;;;;;;300.97;113.00;;;;;;;11.57;100.00;99120.38;308929;31;4310;-77
2023/04/19 00:27:34;;;;;;;307.02;116.00;;;;;;;11.58;100.00;99124.69;306326;32;1274;-77
2023/04/19 00:27:44;;;;;;;305.27;113.32;;;;;;;11.58;100.00;99123.84;312062;31;4228;-76
2023/04/19 00:27:55;;;;;;;304.90;114.03;;;;;;;11.58;100.00;99124.69;311556;31;3355;-76
2023/04/19 00:28:05;;;;;;;298.65;109.88;;;;;;;11.58;100.00;99123.84;308776;31;2843;-75
2023/04/19 00:28:15;;;;;;;300.20;112.23;;;;;;;11.56;100.00;99116.06;307435;32;848;-76
2023/04/19 00:28:26;;;;;;;300.13;111.90;;;;;;;11.58;100.00;99116.81;305050;32;3745;-76
2023/04/19 00:28:36;;;;;;;300.92;112.95;;;;;;;11.57;100.00;99107.25;305720;31;4820;-76
2023/04/19 00:28:47;;;;;;;300.73;113.17;;;;;;;11.60;100.00;99125.44;309588;31;856;-76
2023/04/19 00:28:57;;;;;;;303.50;112.88;;;;;;;11.59;100.00;99121.13;302702;32;6409;-77
2023/04/19 00:29:08;;;;;;;302.73;112.17;;;;;;;11.60;100.00;99116.75;302471;32;6686;-76
2023/04/19 00:29:18;;;;;;;302.23;111.75;;;;;;;11.59;100.00;99115.03;307334;32;899;-76
2023/04/19 00:29:29;;;;;;;299.80;111.32;;;;;;;11.57;100.00;99112.50;301324;32;6652;-76
2023/04/19 00:29:39;;;;;;;303.67;113.17;;;;;;;11.57;100.00;99111.66;299486;32;5450;-75
2023/04/19 00:29:49;;;;;;;303.20;113.20;;;;;;;11.56;100.00;99118.69;300843;32;2208;-77
2023/04/19 00:30:00;;;;;;;301.80;114.53;;;;;;;11.56;100.00;99116.06;297771;33;1350;-77
2023/04/19 00:30:11;;;;;;;300.50;115.00;;;;;;;11.55;100.00;99114.34;295272;33;4390;-76
2023/04/19 00:30:21;;;;;;;300.73;115.00;;;;;;;11.56;100.00;99118.69;291936;33;4726;-77
2023/04/19 00:30:32;;;;;;;305.50;117.17;;;;;;;11.55;100.00;99114.34;293124;33;1365;-77
2023/04/19 00:30:42;;;;;;;306.03;116.70;;;;;;;11.55;100.00;99119.59;290752;33;6461;-77
2023/04/19 00:30:53;;;;;;;306.17;115.80;;;;;;;11.56;100.00;99116.06;289700;33;7397;-76
2023/04/19 00:31:03;;;;;;;300.90;113.57;;;;;;;11.57;100.00;99117.75;290226;34;880;-76
2023/04/19 00:31:13;;;;;;;299.50;112.30;;;;;;;11.55;100.00;99113.50;285882;34;8619;-76
2023/04/19 00:31:24;;;;;;;299.13;113.97;;;;;;;11.58;100.00;99114.19;280997;34;9460;-76
2023/04/19 00:31:34;;;;;;;304.88;120.88;;;;;;;11.58;100.00;99118.59;283472;34;802;-76
2023/04/19 00:32:57;;;;;;;289.80;103.42;;;;;;;11.60;100.00;99117.59;2502002;27;20282;-75
2023/04/19 00:33:11;;;;;;;294.70;108.90;;;;;;;11.59;100.00;99115.91;351554;28;1195;-75
2023/04/19 00:33:22;;;;;;;296.15;110.15;;;;;;;11.59;100.00;99115.91;348709;28;1322;-75
2023/04/19 00:33:32;;;;;;;295.13;109.45;;;;;;;11.59;100.00;99115.91;348898;28;1355;-75
2023/04/19 00:33:42;;;;;;;294.53;108.80;;;;;;;11.58;100.00;99111.56;348776;28;813;-75
2023/04/19 00:33:53;;;;;;;296.60;110.93;;;;;;;11.60;100.00;99112.34;348677;28;932;-75
2023/04/19 00:34:05;;;;;;;297.00;110.65;;;;;;;11.60;100.00;99117.59;350114;28;998;-75
2023/04/19 00:34:15;;;;;;;298.92;112.18;;;;;;;11.60;100.00;99122.84;348680;28;939;-75
2023/04/19 00:34:25;;;;;;;297.43;110.17;;;;;;;11.57;100.00;99109.88;348679;28;939;-75
2023/04/19 00:34:36;;;;;;;297.03;109.30;;;;;;;11.57;100.00;99112.50;347324;28;820;-75
2023/04/19 00:34:46;;;;;;;296.57;108.70;;;;;;;11.57;100.00;99115.13;348578;28;1019;-75
2023/04/19 00:34:57;;;;;;;295.45;108.95;;;;;;;11.58;100.00;99114.19;348702;28;813;-75
2023/04/19 00:35:07;;;;;;;296.07;109.93;;;;;;;11.56;100.00;99110.81;351458;28;789;-75
2023/04/19 00:35:18;;;;;;;295.13;110.82;;;;;;;11.57;100.00;99117.75;350079;28;876;-77
2023/04/19 00:35:28;;;;;;;295.70;111.07;;;;;;;11.59;100.00;99120.28;348608;28;1310;-75
2023/04/19 00:35:40;;;;;;;296.23;112.00;;;;;;;11.55;100.00;99109.13;347328;28;1318;-75
2023/04/19 00:35:50;;;;;;;296.05;110.70;;;;;;;11.57;100.00;99109.88;347206;28;1299;-75
2023/04/19 00:36:01;;;;;;;296.70;110.43;;;;;;;11.59;100.00;99115.91;348702;28;830;-75
2023/04/19 00:36:12;;;;;;;296.15;109.40;;;;;;;11.58;100.00;99106.34;348901;28;1215;-75
2023/04/19 00:36:22;;;;;;;297.70;110.38;;;;;;;11.60;100.00;99120.22;347262;28;932;-75
2023/04/19 00:36:33;;;;;;;297.87;110.77;;;;;;;11.60;100.00;99116.75;345989;28;857;-75
2023/04/19 00:36:43;;;;;;;296.88;110.60;;;;;;;11.58;100.00;99114.19;345964;28;1064;-75
2023/04/19 00:36:54;;;;;;;299.03;110.80;;;;;;;11.56;100.00;99110.81;346879;28;1063;-75
2023/04/19 00:37:05;;;;;;;298.58;110.30;;;;;;;11.55;100.00;99111.75;347808;28;1140;-75
2023/04/19 00:37:15;;;;;;;301.20;111.15;;;;;;;11.56;100.00;99110.81;345813;28;1275;-75
2023/04/19 00:37:26;;;;;;;298.15;110.05;;;;;;;11.56;100.00;99116.06;345841;28;1416;-75
2023/04/19 00:37:36;;;;;;;297.13;108.53;;;;;;;11.58;100.00;99114.19;349296;28;1345;-77
2023/04/19 00:37:47;;;;;;;294.53;108.60;;;;;;;11.58;100.00;99114.19;349958;28;1197;-77
2023/04/19 00:37:57;;;;;;;294.77;109.00;;;;;;;11.57;100.00;99111.66;346314;28;914;-76
2023/04/19 00:38:07;;;;;;;300.93;112.40;;;;;;;11.58;100.00;99116.81;346248;28;913;-76
2023/04/19 00:38:18;;;;;;;300.48;110.93;;;;;;;11.59;100.00;99115.91;344577;28;898;-76
2023/04/19 00:38:28;;;;;;;300.50;111.40;;;;;;;11.59;100.00;99115.03;343586;28;1351;-76
2023/04/19 00:38:39;;;;;;;295.42;109.15;;;;;;;11.61;100.00;99113.19;347957;28;1577;-76
2023/04/19 00:38:49;;;;;;;296.50;110.43;;;;;;;11.59;100.00;99112.44;347930;28;1250;-77
2023/04/19 00:39:00;;;;;;;297.27;111.50;;;;;;;11.58;100.00;99108.97;347302;28;1407;-77
2023/04/19 00:39:10;;;;;;;297.50;112.27;;;;;;;11.59;100.00;99112.44;342776;28;1392;-76
2023/04/19 00:39:21;;;;;;;297.70;113.30;;;;;;;11.58;100.00;99114.19;341875;28;1003;-76
2023/04/19 00:39:31;;;;;;;298.33;112.93;;;;;;;11.58;100.00;99105.50;343210;28;1195;-76
2023/04/19 00:39:41;;;;;;;298.98;112.90;;;;;;;11.56;100.00;99116.06;344585;28;821;-76
2023/04/19 00:39:52;;;;;;;299.33;112.33;;;;;;;11.57;100.00;99107.25;341080;28;941;-76
2023/04/19 00:40:03;;;;;;;297.83;110.57;;;;;;;11.58;100.00;99113.34;342231;28;1316;-76
2023/04/19 00:40:14;;;;;;;297.95;111.47;;;;;;;11.58;100.00;99114.19;341963;28;1295;-76
2023/04/19 00:40:24;;;;;;;298.30;111.47;;;;;;;11.56;100.00;99109.97;341909;28;887;-76
2023/04/19 00:40:36;;;;;;;298.98;113.22;;;;;;;11.57;100.00;99111.66;340965;28;1200;-76
2023/04/19 00:40:46;;;;;;;297.75;111.72;;;;;;;11.55;100.00;99109.13;339260;28;1270;-76
2023/04/19 00:40:57;;;;;;;298.30;112.40;;;;;;;11.58;100.00;99114.19;339135;29;1386;-76
2023/04/19 00:41:08;;;;;;;297.75;112.18;;;;;;;11.54;100.00;99112.66;336497;29;1375;-76
2023/04/19 00:41:18;;;;;;;298.17;112.28;;;;;;;11.52;100.00;99111.91;338127;29;1307;-76
2023/04/19 00:41:29;;;;;;;297.93;111.53;;;;;;;11.46;100.00;99112.22;336641;29;1185;-76
2023/04/19 00:41:39;;;;;;;298.02;111.55;;;;;;;11.45;100.00;99110.53;334890;29;1460;-76
2023/04/19 00:41:51;;;;;;;298.73;112.03;;;;;;;11.46;100.00;99109.59;337692;29;1911;-76
2023/04/19 00:42:02;;;;;;;298.75;111.78;;;;;;;11.50;100.00;99111.13;339150;29;1037;-76
2023/04/19 00:42:12;;;;;;;300.23;111.97;;;;;;;11.50;100.00;99103.28;336755;29;799;-76
2023/04/19 00:42:23;;;;;;;299.58;110.95;;;;;;;11.50;100.00;99111.13;334472;29;855;-76
2023/04/19 00:42:33;;;;;;;299.00;110.90;;;;;;;11.52;100.00;99114.53;333195;29;1009;-76
2023/04/19 00:42:43;;;;;;;295.90;109.73;;;;;;;11.53;100.00;99110.97;334025;29;1631;-76
2023/04/19 00:42:54;;;;;;;296.20;110.63;;;;;;;11.52;100.00;99103.19;336124;29;1517;-76
2023/04/19 00:43:04;;;;;;;296.87;111.57;;;;;;;11.52;100.00;99114.53;335427;29;1897;-76
2023/04/19 00:43:18;;;;;;;296.63;111.30;;;;;;;11.53;100.00;99116.22;331594;29;1417;-77
2023/04/19 00:43:28;;;;;;;296.08;109.72;;;;;;;11.53;100.00;99105.72;327836;30;948;-76
2023/04/19 00:43:39;;;;;;;295.13;107.73;;;;;;;11.54;100.00;99106.56;332530;29;1792;-76
2023/04/19 00:43:49;;;;;;;297.57;109.50;;;;;;;11.55;100.00;99111.75;330477;29;1649;-76
2023/04/19 00:44:00;;;;;;;296.08;108.15;;;;;;;11.54;100.00;99107.44;328197;30;828;-76
2023/04/19 00:44:11;;;;;;;295.93;109.40;;;;;;;11.53;100.00;99110.97;327564;29;1379;-76
2023/04/19 00:44:22;;;;;;;295.80;110.05;;;;;;;11.54;100.00;99107.44;329692;29;1292;-76
2023/04/19 00:44:33;;;;;;;295.10;108.72;;;;;;;11.54;100.00;99107.44;326315;30;1309;-76
2023/04/19 00:44:43;;;;;;;295.70;108.47;;;;;;;11.56;100.00;99105.56;322040;30;936;-76
2023/04/19 00:44:54;;;;;;;295.87;108.27;;;;;;;11.57;100.00;99116.91;321694;30;1834;-76
2023/04/19 00:45:04;;;;;;;297.60;109.87;;;;;;;11.55;100.00;99109.13;322650;30;2018;-76
2023/04/19 00:45:15;;;;;;;298.37;111.13;;;;;;;11.57;100.00;99115.13;324096;30;1039;-76
2023/04/19 00:45:25;;;;;;;299.05;111.68;;;;;;;11.58;100.00;99108.13;324685;30;2498;-77
2023/04/19 00:45:36;;;;;;;300.50;112.30;;;;;;;11.57;100.00;99114.28;324402;30;2278;-76
2023/04/19 00:45:46;;;;;;;301.38;111.55;;;;;;;11.58;100.00;99108.13;320494;30;2605;-76
2023/04/19 00:45:57;;;;;;;300.20;111.63;;;;;;;11.59;100.00;99108.03;321971;30;834;-76
2023/04/19 00:46:07;;;;;;;297.60;110.03;;;;;;;11.60;100.00;99106.25;322406;30;2291;-76
2023/04/19 00:46:17;;;;;;;297.17;110.70;;;;;;;11.60;100.00;99109.72;320998;30;1453;-76
2023/04/19 00:46:28;;;;;;;296.40;110.05;;;;;;;11.60;100.00;99112.34;320887;30;802;-76
2023/04/19 00:46:38;;;;;;;297.77;111.40;;;;;;;11.61;100.00;99114.03;321100;30;1264;-76
2023/04/19 00:46:49;;;;;;;296.77;110.15;;;;;;;11.61;100.00;99108.78;319899;30;2092;-76
2023/04/19 00:47:00;;;;;;;299.40;113.00;;;;;;;11.62;100.00;99109.66;318299;31;775;-76
2023/04/19 00:47:10;;;;;;;299.33;112.47;;;;;;;11.60;100.00;99104.47;319114;30;2478;-76
2023/04/19 00:47:20;;;;;;;300.70;113.87;;;;;;;11.59;100.00;99108.03;321405;30;2613;-76
2023/04/19 00:47:31;;;;;;;300.33;112.80;;;;;;;11.60;100.00;99103.63;318547;30;1314;-76
2023/04/19 00:47:41;;;;;;;300.93;111.50;;;;;;;11.61;100.00;99113.19;317183;31;3251;-76
2023/04/19 00:47:52;;;;;;;301.05;112.07;;;;;;;11.58;100.00;99106.34;314514;31;3175;-75
2023/04/19 00:48:03;;;;;;;298.33;109.68;;;;;;;11.59;100.00;99108.03;315404;30;3255;-76
2023/04/19 00:48:13;;;;;;;301.30;112.13;;;;;;;11.60;100.00;99112.34;319843;30;818;-76
2023/04/19 00:48:23;;;;;;;302.52;112.75;;;;;;;11.60;100.00;99109.72;317291;31;2984;-76
2023/04/19 00:48:38;;;;;;;302.73;114.20;;;;;;;11.54;100.00;99112.66;317103;31;2046;-76
2023/04/19 00:48:50;;;;;;;298.40;111.30;;;;;;;11.56;100.00;99110.81;316068;31;2296;-77
2023/04/19 00:49:00;;;;;;;300.02;111.18;;;;;;;11.53;100.00;99110.97;315127;31;1613;-77
2023/04/19 00:49:10;;;;;;;302.35;112.07;;;;;;;11.51;100.00;99110.22;314944;31;2717;-76
2023/04/19 00:49:21;;;;;;;305.60;114.67;;;;;;;11.51;100.00;99112.81;310190;31;3591;-76
2023/04/19 00:49:31;;;;;;;303.67;112.80;;;;;;;11.52;100.00;99111.91;305783;31;3973;-76
2023/04/19 00:49:42;;;;;;;298.40;111.57;;;;;;;11.52;100.00;99106.66;308515;32;1226;-76
2023/04/19 00:49:52;;;;;;;297.35;111.38;;;;;;;11.54;100.00;99111.81;309737;31;4333;-77
2023/04/19 00:50:03;;;;;;;297.20;111.93;;;;;;;11.54;100.00;99112.66;311522;31;4104;-77
2023/04/19 00:50:13;;;;;;;298.25;110.97;;;;;;;11.54;100.00;99109.19;310757;31;1368;-77
2023/04/19 00:50:24;;;;;;;298.57;111.03;;;;;;;11.55;100.00;99113.50;305877;32;3726;-76
2023/04/19 00:50:34;;;;;;;300.80;112.65;;;;;;;11.54;100.00;99111.81;304504;31;3526;-76
2023/04/19 00:50:45;;;;;;;298.95;111.18;;;;;;;11.54;100.00;99112.66;307399;32;1556;-76
2023/04/19 00:50:55;;;;;;;299.37;112.47;;;;;;;11.55;100.00;99114.34;307660;32;2835;-76
2023/04/19 00:51:06;;;;;;;298.15;111.97;;;;;;;11.55;100.00;99108.28;306168;32;3280;-76
2023/04/19 00:51:17;;;;;;;301.47;113.63;;;;;;;11.55;100.00;99114.34;303389;32;4138;-76
2023/04/19 00:51:27;;;;;;;301.00;112.63;;;;;;;11.55;100.00;99111.75;300145;32;1297;-76